Allegheny County Airport
KAGC : now visible

Airfield :











YOU CAN JOIN US ON...

 
LOGIN :

Register | Disclaimer

   EN    FR    IT 

 









Legend :    VFR   Marginal VFR   IFR   Intensive IFR   Very Intensive IFR
Visi :
Ceiling :
>= 8 km
>= 3000ft
5 to 8 km
1000 to 3000 ft
1500m to 5 km
500 to 1000 ft
800 to 1500m
200 to 500 ft
< 800m
< 200 ft
Symbols :   Thunderstorms  Fog  Heavy snow  Heavy precipitations  Wind > 20 kt






- Airport Elevation : 1252 ft
- IATA code : AGC


KAGC - Allegheny County

CURRENT METAR :
  • 260508Z 23006KT 2SM -SN BR BKN010 OVC015 01/M01 A2986 RMK AO2 P0000 T00061006

EXPIRED METARs :
  • 260453Z 22008KT 4SM -SN BR BKN010 OVC015 01/00 A2986 RMK AO2 CIG 007V012 SLP127 P0000 T00060000 400610006
  • 260403Z 23008KT 6SM -SN BR BKN012 BKN018 OVC023 01/M01 A2987 RMK AO2 P0000 T00061006
  • 260345Z 22010KT 3SM -SN BR SCT010 OVC016 01/M01 A2986 RMK AO2 P0001 T00061006
  • 260334Z 22010KT 2 1/2SM -SN BR OVC014 01/M01 A2987 RMK AO2 P0001 T00061006
  • 260317Z 21010KT 3SM -SN BR BKN014 OVC021 01/M01 A2986 RMK AO2 P0000 T00061006
  • 260253Z 22008KT 6SM -SN BR BKN018 OVC023 01/M01 A2987 RMK AO2 SNB46 SLP127 P0000 60000 T00111006 58002
  • 260221Z 22009KT 8SM BKN017 BKN060 OVC080 01/M01 A2987 RMK AO2 T00111006

TAF KAGC
Valid from the 26 at 02:00 until the 27 at 00:00 UTC


260209Z 2602/2624 23010KT 6SM -SN OVC015
FM260300 23012KT 3SM -SN OVC009
FM260800 23012G18KT P6SM -SN OVC015



MET'MAP, your aeronautical weather chart ! - Copyright ORBIFLY December 2007 - Disclaimer

ORBIFLY MET'MAP TEAM :

Programming & Development : Alexandra Zaïnal
Concept & original design : Baudouin d'Aumeries
Assistance for programming : Marc-Olivier Méhu
Technical & hardware support : Manuel Goepfert

Contact : metmap@orbifly.com




SOURCES & CREDITS :

   NOAA       Earth
Advisory